createdAt,value
2018-02-09T00:01:03.151Z,-0.70
2018-02-09T00:03:29.440Z,-0.90
2018-02-09T00:05:56.107Z,-0.50
2018-02-09T00:08:22.499Z,-0.70
2018-02-09T00:10:48.848Z,-0.80
2018-02-09T00:13:15.159Z,-0.80
2018-02-09T00:15:41.513Z,-0.90
2018-02-09T00:18:07.903Z,-1.00
2018-02-09T00:20:34.947Z,-0.70
2018-02-09T00:23:01.260Z,-0.50
2018-02-09T00:25:27.551Z,-0.50
2018-02-09T00:27:54.216Z,-0.30
2018-02-09T00:30:20.649Z,-0.30
2018-02-09T00:32:46.939Z,-0.50
2018-02-09T00:35:13.618Z,-0.50
2018-02-09T00:37:39.948Z,-0.70
2018-02-09T00:40:06.242Z,-0.80
2018-02-09T00:42:33.012Z,-0.60
2018-02-09T00:44:59.320Z,-0.60
2018-02-09T00:47:25.634Z,-0.80
2018-02-09T00:49:52.043Z,-0.70
2018-02-09T00:52:19.026Z,-0.90
2018-02-09T00:54:45.368Z,-0.80
2018-02-09T00:57:11.725Z,-0.80
2018-02-09T00:59:38.112Z,-0.80
2018-02-09T01:02:04.415Z,-0.60
2018-02-09T01:04:30.896Z,-0.80
2018-02-09T01:06:57.248Z,-0.80
2018-02-09T01:09:23.652Z,-1.00
2018-02-09T01:11:49.987Z,-1.00
2018-02-09T01:14:16.342Z,-0.90
2018-02-09T01:16:42.710Z,-1.30
2018-02-09T01:19:09.124Z,-1.00
2018-02-09T01:21:35.415Z,-1.20
2018-02-09T01:24:01.708Z,-1.20
2018-02-09T01:26:28.747Z,-1.10
2018-02-09T01:28:55.530Z,-1.10
2018-02-09T01:31:21.919Z,-1.10
2018-02-09T01:33:48.268Z,-1.30
2018-02-09T01:36:15.296Z,-1.20
2018-02-09T01:38:41.679Z,-1.20
2018-02-09T01:41:08.649Z,-1.20
2018-02-09T01:43:34.936Z,-1.00
2018-02-09T01:46:01.242Z,-1.30
2018-02-09T01:48:28.307Z,-1.20
2018-02-09T01:50:55.367Z,-1.30
2018-02-09T01:53:21.732Z,-1.30
2018-02-09T01:55:48.159Z,-1.20
2018-02-09T01:58:14.503Z,-1.00
2018-02-09T02:00:40.860Z,-1.00
2018-02-09T02:03:08.280Z,-1.10
2018-02-09T02:05:34.616Z,-1.20
2018-02-09T02:08:00.916Z,-1.20
2018-02-09T02:10:27.210Z,-0.80
2018-02-09T02:12:53.515Z,-1.30
2018-02-09T02:15:19.835Z,-1.30
2018-02-09T02:17:46.179Z,-0.90
2018-02-09T02:20:12.536Z,-1.10
2018-02-09T02:22:39.604Z,-1.10
2018-02-09T02:25:06.746Z,-1.20
2018-02-09T02:27:33.088Z,-1.40
2018-02-09T02:29:59.398Z,-1.30
2018-02-09T02:32:25.825Z,-1.40
2018-02-09T02:34:52.873Z,-1.30
2018-02-09T02:37:19.147Z,-1.40
2018-02-09T02:39:45.500Z,-1.30
2018-02-09T02:42:11.824Z,-1.50
2018-02-09T02:44:38.112Z,-1.10
2018-02-09T02:47:04.522Z,-1.20
2018-02-09T02:49:30.852Z,-1.50
2018-02-09T02:51:57.190Z,-1.50
2018-02-09T02:54:23.888Z,-1.30
2018-02-09T02:56:50.184Z,-1.30
2018-02-09T02:59:16.514Z,-1.40
2018-02-09T03:01:42.848Z,-1.50
2018-02-09T03:04:09.164Z,-1.70
2018-02-09T03:06:35.473Z,-1.60
2018-02-09T03:09:01.924Z,-1.40
2018-02-09T03:11:29.058Z,-1.40
2018-02-09T03:13:55.370Z,-1.40
2018-02-09T03:16:21.987Z,-1.20
2018-02-09T03:18:48.332Z,-1.50
2018-02-09T03:21:14.628Z,-1.30
2018-02-09T03:23:40.936Z,-1.40
2018-02-09T03:26:07.295Z,-1.40
2018-02-09T03:28:34.187Z,-1.40
2018-02-09T03:31:00.621Z,-1.70
2018-02-09T03:33:26.925Z,-1.30
2018-02-09T03:35:53.277Z,-1.30
2018-02-09T03:38:19.583Z,-1.40
2018-02-09T03:40:45.943Z,-1.70
2018-02-09T03:43:12.991Z,-1.60
2018-02-09T03:45:39.319Z,-1.70
2018-02-09T03:48:06.599Z,-1.90
2018-02-09T03:50:33.662Z,-1.40
2018-02-09T03:53:00.692Z,-1.40
2018-02-09T03:55:27.734Z,-1.60
2018-02-09T03:57:54.043Z,-1.60
2018-02-09T04:00:20.323Z,-1.80
2018-02-09T04:02:46.673Z,-1.80
2018-02-09T04:05:13.803Z,-1.70
2018-02-09T04:07:40.227Z,-1.60
2018-02-09T04:10:07.259Z,-1.60
2018-02-09T04:12:34.344Z,-1.70
2018-02-09T04:15:00.694Z,-1.70
2018-02-09T04:17:27.015Z,-1.50
2018-02-09T04:19:53.340Z,-1.60
2018-02-09T04:22:19.639Z,-1.80
2018-02-09T04:24:46.680Z,-1.60
2018-02-09T04:27:13.813Z,-1.60
2018-02-09T04:29:40.106Z,-1.80
2018-02-09T04:32:06.431Z,-1.80
2018-02-09T04:34:32.808Z,-1.90
2018-02-09T04:36:59.123Z,-1.70
2018-02-09T04:39:25.526Z,-1.70
2018-02-09T04:41:51.863Z,-1.70
2018-02-09T04:44:18.221Z,-1.70
2018-02-09T04:46:44.515Z,-1.60
2018-02-09T04:49:10.835Z,-1.50
2018-02-09T04:51:37.986Z,-1.60
2018-02-09T04:54:04.408Z,-1.60
2018-02-09T04:56:31.488Z,-1.70
2018-02-09T04:58:57.839Z,-2.00
2018-02-09T05:01:24.142Z,-1.80
2018-02-09T05:03:50.458Z,-1.50
2018-02-09T05:06:16.845Z,-1.80
2018-02-09T05:08:43.195Z,-1.90
2018-02-09T05:11:09.503Z,-1.90
2018-02-09T05:13:35.857Z,-2.00
2018-02-09T05:16:02.907Z,-1.70
2018-02-09T05:18:29.975Z,-1.80
2018-02-09T05:20:57.039Z,-1.70
2018-02-09T05:23:23.403Z,-1.80
2018-02-09T05:25:49.735Z,-1.90
2018-02-09T05:28:16.065Z,-2.00
2018-02-09T05:30:42.369Z,-2.10
2018-02-09T05:33:08.667Z,-2.00
2018-02-09T05:35:35.735Z,-1.80
2018-02-09T05:38:02.040Z,-1.90
2018-02-09T05:40:29.083Z,-2.10
2018-02-09T05:42:55.415Z,-1.90
2018-02-09T05:45:22.464Z,-1.80
2018-02-09T05:47:49.516Z,-1.80
2018-02-09T05:50:16.557Z,-1.90
2018-02-09T05:52:43.623Z,-1.90
2018-02-09T05:55:10.080Z,-2.00
2018-02-09T05:57:37.183Z,-1.70
2018-02-09T06:00:04.303Z,-2.10
2018-02-09T06:02:30.680Z,-2.00
2018-02-09T06:04:57.817Z,-1.80
2018-02-09T06:07:24.875Z,-2.20
2018-02-09T06:09:51.945Z,-2.00
2018-02-09T06:12:18.263Z,-2.20
2018-02-09T06:14:45.288Z,-1.80
2018-02-09T06:17:12.369Z,-1.90
2018-02-09T06:19:38.683Z,-1.90
2018-02-09T06:22:04.969Z,-2.00
2018-02-09T06:24:31.308Z,-2.10
2018-02-09T06:26:57.748Z,-1.90
2018-02-09T06:29:24.883Z,-1.80
2018-02-09T06:31:51.219Z,-2.10
2018-02-09T06:34:17.518Z,-2.20
2018-02-09T06:36:43.886Z,-1.90
2018-02-09T06:39:10.187Z,-1.80
2018-02-09T06:41:36.483Z,-1.90
2018-02-09T06:44:03.616Z,-1.90
2018-02-09T06:46:29.954Z,-2.10
2018-02-09T06:48:57.027Z,-1.90
2018-02-09T06:51:23.391Z,-1.80
2018-02-09T06:53:49.692Z,-1.90
2018-02-09T06:56:16.052Z,-2.20
2018-02-09T06:58:43.487Z,-1.80
2018-02-09T07:01:09.782Z,-2.20
2018-02-09T07:03:36.073Z,-1.90
2018-02-09T07:06:02.415Z,-1.90
2018-02-09T07:08:28.730Z,-1.90
2018-02-09T07:10:55.042Z,-2.10
2018-02-09T07:13:22.421Z,-2.00
2018-02-09T07:15:48.695Z,-2.00
2018-02-09T07:18:14.973Z,-1.90
2018-02-09T07:20:41.287Z,-2.10
2018-02-09T07:23:07.799Z,-1.70
2018-02-09T07:25:34.863Z,-1.80
2018-02-09T07:28:01.191Z,-1.90
2018-02-09T07:30:28.347Z,-1.60
2018-02-09T07:32:54.647Z,-1.60
2018-02-09T07:35:20.936Z,-1.60
2018-02-09T07:37:47.263Z,-1.70
2018-02-09T07:40:13.626Z,-1.70
2018-02-09T07:42:40.026Z,-1.50
2018-02-09T07:45:06.326Z,-1.10
2018-02-09T07:47:32.789Z,-1.00
2018-02-09T07:49:59.075Z,-1.10
2018-02-09T07:52:26.194Z,-0.50
2018-02-09T07:54:52.508Z,-0.50
2018-02-09T07:57:18.856Z,-0.50
2018-02-09T07:59:45.156Z,-0.60
2018-02-09T08:02:11.431Z,-0.70
2018-02-09T08:04:37.834Z,-0.40
2018-02-09T08:07:04.196Z,-0.30
2018-02-09T08:09:30.635Z,0.00
2018-02-09T08:11:56.968Z,-0.20
2018-02-09T08:14:23.276Z,-0.40
2018-02-09T08:16:49.577Z,-0.30
2018-02-09T08:19:16.724Z,0.30
2018-02-09T08:21:43.007Z,0.10
2018-02-09T08:24:09.296Z,0.50
2018-02-09T08:26:35.595Z,0.20
2018-02-09T08:29:01.900Z,0.10
2018-02-09T08:31:29.079Z,0.50
2018-02-09T08:33:55.411Z,0.70
2018-02-09T08:36:21.784Z,0.30
2018-02-09T08:38:48.113Z,0.30
2018-02-09T08:41:14.451Z,0.20
2018-02-09T08:43:40.764Z,0.10
2018-02-09T08:46:07.164Z,0.00
2018-02-09T08:48:33.586Z,0.50
2018-02-09T08:51:00.672Z,0.50
2018-02-09T08:53:26.991Z,0.50
2018-02-09T08:55:53.384Z,0.90
2018-02-09T08:58:19.732Z,0.50
2018-02-09T09:00:46.031Z,0.70
2018-02-09T09:03:12.383Z,1.30
2018-02-09T09:05:39.473Z,1.30
2018-02-09T09:08:05.823Z,1.10
2018-02-09T09:10:32.150Z,1.00
2018-02-09T09:12:59.312Z,0.50
2018-02-09T09:15:25.639Z,0.60
2018-02-09T09:17:52.010Z,0.90
2018-02-09T09:20:19.089Z,1.40
2018-02-09T09:22:46.412Z,1.40
2018-02-09T09:25:12.780Z,1.60
2018-02-09T09:27:39.107Z,2.30
2018-02-09T09:30:05.463Z,2.00
2018-02-09T09:32:33.595Z,1.80
2018-02-09T09:35:00.044Z,1.50
2018-02-09T09:37:26.317Z,1.90
2018-02-09T09:39:52.616Z,2.00
2018-02-09T09:42:19.005Z,2.40
2018-02-09T09:44:46.169Z,2.70
2018-02-09T09:47:12.467Z,2.80
2018-02-09T09:49:39.540Z,2.80
2018-02-09T09:52:06.724Z,3.10
2018-02-09T09:54:32.991Z,2.60
2018-02-09T09:56:59.280Z,3.70
2018-02-09T09:59:25.569Z,3.30
2018-02-09T10:01:51.963Z,3.30
2018-02-09T10:04:18.230Z,3.80
2018-02-09T10:06:44.743Z,4.20
2018-02-09T10:09:11.109Z,3.90
2018-02-09T10:11:38.428Z,3.10
2018-02-09T10:14:04.755Z,3.00
2018-02-09T10:16:31.128Z,3.00
2018-02-09T10:18:57.521Z,2.80
2018-02-09T10:21:23.836Z,2.10
2018-02-09T10:23:50.155Z,2.40
2018-02-09T10:26:16.515Z,3.00
2018-02-09T10:28:42.827Z,3.20
2018-02-09T10:31:09.588Z,2.90
2018-02-09T10:33:36.734Z,3.20
2018-02-09T10:36:03.811Z,2.90
2018-02-09T10:38:30.322Z,3.90
2018-02-09T10:40:58.397Z,4.30
2018-02-09T10:43:24.719Z,4.40
2018-02-09T10:45:51.255Z,4.30
2018-02-09T10:48:17.564Z,4.90
2018-02-09T10:50:43.915Z,4.80
2018-02-09T10:53:11.188Z,4.80
2018-02-09T10:55:37.636Z,4.40
2018-02-09T10:58:04.753Z,4.50
2018-02-09T11:00:37.363Z,4.80
2018-02-09T11:03:04.407Z,3.30
2018-02-09T11:05:30.720Z,3.20
2018-02-09T11:07:57.795Z,3.50
2018-02-09T11:10:30.774Z,3.50
2018-02-09T11:12:57.172Z,3.40
2018-02-09T11:15:23.506Z,3.40
2018-02-09T11:17:49.944Z,3.60
2018-02-09T11:20:16.244Z,3.50
2018-02-09T11:22:42.611Z,3.40
2018-02-09T11:25:08.908Z,3.90
2018-02-09T11:27:35.371Z,4.50
2018-02-09T11:30:01.703Z,3.70
2018-02-09T11:32:27.999Z,3.70
2018-02-09T11:34:54.397Z,3.50
2018-02-09T11:37:23.435Z,3.30
2018-02-09T11:39:50.705Z,2.90
2018-02-09T11:42:16.996Z,3.70
2018-02-09T11:44:44.147Z,4.70
2018-02-09T11:47:10.427Z,4.70
2018-02-09T11:49:36.755Z,4.60
2018-02-09T11:52:03.034Z,4.70
2018-02-09T11:54:29.408Z,5.10
2018-02-09T11:56:55.743Z,4.70
2018-02-09T11:59:22.145Z,4.70
2018-02-09T12:01:48.710Z,4.30
2018-02-09T12:04:15.007Z,4.10
2018-02-09T12:06:41.683Z,4.20
2018-02-09T12:09:08.112Z,3.70
2018-02-09T12:11:34.514Z,3.50
2018-02-09T12:14:00.844Z,3.90
2018-02-09T12:16:27.319Z,3.80
2018-02-09T12:18:53.619Z,4.10
2018-02-09T12:21:19.979Z,3.40
2018-02-09T12:23:46.335Z,4.00
2018-02-09T12:26:12.628Z,4.50
2018-02-09T12:28:38.964Z,4.40
2018-02-09T12:31:05.294Z,4.70
2018-02-09T12:33:31.939Z,4.90
2018-02-09T12:35:58.226Z,4.60
2018-02-09T12:38:24.515Z,3.50
2018-02-09T12:40:51.442Z,3.90
2018-02-09T12:43:17.928Z,4.00
2018-02-09T12:45:45.006Z,4.80
2018-02-09T12:48:11.404Z,4.50
2018-02-09T12:50:38.482Z,5.00
2018-02-09T12:53:04.787Z,4.80
2018-02-09T12:55:31.819Z,3.90
2018-02-09T12:57:58.847Z,3.90
2018-02-09T13:00:25.163Z,3.60
2018-02-09T13:02:51.476Z,3.60
2018-02-09T13:05:18.155Z,4.20
2018-02-09T13:07:45.234Z,3.70
2018-02-09T13:10:12.139Z,3.90
2018-02-09T13:12:50.770Z,4.40
2018-02-09T13:15:17.044Z,4.30
2018-02-09T13:17:43.359Z,3.90
2018-02-09T13:20:09.663Z,4.10
2018-02-09T13:22:48.903Z,4.10
2018-02-09T13:25:15.453Z,4.10
2018-02-09T13:27:41.818Z,4.40
2018-02-09T13:30:08.949Z,4.40
2018-02-09T13:32:47.635Z,4.30
2018-02-09T13:35:14.074Z,4.20
2018-02-09T13:37:40.391Z,4.80
2018-02-09T13:40:06.851Z,4.40
2018-02-09T13:42:33.917Z,4.10
2018-02-09T13:45:00.356Z,3.80
2018-02-09T13:47:27.124Z,4.00
2018-02-09T13:49:53.407Z,4.30
2018-02-09T13:52:20.494Z,5.40
2018-02-09T13:54:47.598Z,4.90
2018-02-09T13:57:14.768Z,5.00
2018-02-09T13:59:41.056Z,5.20
2018-02-09T14:02:07.363Z,5.10
2018-02-09T14:04:33.747Z,5.20
2018-02-09T14:07:00.183Z,5.70
2018-02-09T14:09:27.283Z,5.40
2018-02-09T14:11:53.656Z,5.20
2018-02-09T14:14:20.036Z,5.60
2018-02-09T14:19:19.362Z,5.00
2018-02-09T14:21:45.727Z,4.80
2018-02-09T14:24:12.064Z,4.50
2018-02-09T14:26:38.341Z,4.30
2018-02-09T14:29:04.784Z,4.30
2018-02-09T14:31:31.206Z,3.70
2018-02-09T14:33:57.600Z,3.90
2018-02-09T14:36:23.954Z,3.70
2018-02-09T14:38:50.256Z,3.80
2018-02-09T14:41:16.570Z,3.60
2018-02-09T14:43:42.863Z,4.00
2018-02-09T14:46:09.167Z,4.00
2018-02-09T14:48:35.459Z,3.60
2018-02-09T14:51:01.824Z,3.80
2018-02-09T14:53:28.867Z,3.90
2018-02-09T14:55:55.908Z,4.00
2018-02-09T14:58:22.963Z,4.20
2018-02-09T15:00:50.003Z,4.30
2018-02-09T15:03:17.114Z,4.40
2018-02-09T15:05:43.416Z,4.40
2018-02-09T15:08:09.808Z,4.60
2018-02-09T15:10:36.182Z,4.20
2018-02-09T15:13:02.543Z,4.50
2018-02-09T15:15:28.898Z,4.20
2018-02-09T15:17:55.190Z,3.90
2018-02-09T15:20:21.541Z,3.90
2018-02-09T15:22:47.867Z,3.40
2018-02-09T15:25:14.248Z,3.80
2018-02-09T15:27:41.568Z,3.60
2018-02-09T15:30:08.703Z,3.50
2018-02-09T15:32:35.068Z,3.30
2018-02-09T15:35:01.411Z,3.30
2018-02-09T15:37:28.511Z,3.00
2018-02-09T15:39:54.914Z,2.80
2018-02-09T15:42:21.295Z,2.80
2018-02-09T15:44:47.621Z,2.70
2018-02-09T15:47:13.984Z,2.80
2018-02-09T15:49:40.386Z,3.00
2018-02-09T15:52:07.534Z,3.00
2018-02-09T15:54:33.849Z,2.90
2018-02-09T15:57:00.173Z,2.60
2018-02-09T15:59:26.534Z,2.60
2018-02-09T16:01:52.852Z,3.00
2018-02-09T16:04:19.160Z,2.50
2018-02-09T16:06:45.444Z,2.50
2018-02-09T16:09:12.526Z,2.70
2018-02-09T16:11:38.824Z,2.70
2018-02-09T16:14:06.043Z,2.70
2018-02-09T16:16:32.412Z,2.80
2018-02-09T16:18:58.731Z,2.80
2018-02-09T16:21:25.659Z,2.30
2018-02-09T16:23:51.956Z,2.70
2018-02-09T16:26:18.919Z,2.30
2018-02-09T16:28:45.223Z,2.20
2018-02-09T16:31:11.618Z,2.40
2018-02-09T16:33:37.903Z,2.40
2018-02-09T16:36:04.211Z,2.30
2018-02-09T16:38:30.556Z,2.00
2018-02-09T16:40:56.884Z,2.10
2018-02-09T16:43:23.198Z,2.50
2018-02-09T16:45:49.615Z,2.40
2018-02-09T16:48:16.084Z,2.50
2018-02-09T16:50:42.445Z,2.40
2018-02-09T16:53:08.875Z,2.30
2018-02-09T16:55:35.163Z,2.50
2018-02-09T16:58:01.473Z,2.20
2018-02-09T17:00:27.815Z,2.20
2018-02-09T17:02:54.159Z,2.10
2018-02-09T17:05:20.518Z,2.40
2018-02-09T17:07:46.888Z,2.20
2018-02-09T17:10:13.273Z,2.20
2018-02-09T17:12:39.647Z,2.30
2018-02-09T17:15:06.056Z,2.50
2018-02-09T17:17:32.359Z,2.30
2018-02-09T17:19:58.723Z,2.20
2018-02-09T17:22:25.074Z,2.30
2018-02-09T17:24:51.356Z,2.50
2018-02-09T17:27:17.720Z,2.30
2018-02-09T17:29:44.023Z,2.30
2018-02-09T17:32:10.347Z,2.30
2018-02-09T17:34:36.805Z,2.40
2018-02-09T17:37:03.856Z,2.70
2018-02-09T17:39:30.952Z,2.60
2018-02-09T17:41:58.283Z,2.50
2018-02-09T17:44:24.645Z,2.20
2018-02-09T17:46:50.967Z,2.40
2018-02-09T17:49:17.372Z,2.70
2018-02-09T17:51:43.639Z,2.60
2018-02-09T17:54:10.760Z,2.70
2018-02-09T17:56:37.083Z,2.60
2018-02-09T17:59:04.172Z,2.30
2018-02-09T18:01:30.564Z,2.70
2018-02-09T18:03:56.845Z,2.40
2018-02-09T18:06:23.204Z,2.60
2018-02-09T18:08:49.524Z,2.50
2018-02-09T18:11:16.290Z,2.80
2018-02-09T18:13:43.352Z,2.60
2018-02-09T18:16:10.801Z,2.80
2018-02-09T18:18:37.127Z,2.30
2018-02-09T18:21:03.592Z,2.40
2018-02-09T18:23:30.085Z,2.30
2018-02-09T18:25:57.160Z,2.50
2018-02-09T18:28:24.964Z,2.30
2018-02-09T18:30:51.266Z,2.40
2018-02-09T18:33:18.135Z,2.50
2018-02-09T18:35:44.653Z,2.70
2018-02-09T18:38:11.005Z,2.40
2018-02-09T18:40:37.595Z,2.40
2018-02-09T18:43:03.942Z,2.60
2018-02-09T18:45:30.295Z,2.80
2018-02-09T18:47:56.645Z,2.60
2018-02-09T18:50:23.083Z,2.90
2018-02-09T18:52:49.479Z,2.80
2018-02-09T18:55:15.937Z,2.70
2018-02-09T18:57:43.871Z,2.70
2018-02-09T19:00:10.215Z,2.60
2018-02-09T19:02:37.267Z,2.60
2018-02-09T19:05:03.579Z,2.40
2018-02-09T19:07:29.912Z,2.50
2018-02-09T19:09:56.987Z,2.50
2018-02-09T19:12:23.518Z,2.70
2018-02-09T19:14:49.870Z,2.60
2018-02-09T19:17:16.252Z,2.60
2018-02-09T19:19:43.931Z,2.50
2018-02-09T19:22:10.293Z,2.60
2018-02-09T19:24:36.677Z,2.60
2018-02-09T19:27:03.464Z,2.80
2018-02-09T19:29:29.885Z,2.60
2018-02-09T19:31:56.196Z,2.50
2018-02-09T19:34:23.295Z,2.50
2018-02-09T19:36:50.083Z,2.50
2018-02-09T19:39:18.144Z,2.40
2018-02-09T19:41:44.548Z,2.60
2018-02-09T19:44:10.861Z,2.70
2018-02-09T19:46:37.194Z,2.70
2018-02-09T19:49:03.598Z,2.90
2018-02-09T19:51:29.944Z,2.70
2018-02-09T19:53:56.283Z,2.50
2018-02-09T19:56:22.616Z,2.40
2018-02-09T19:58:49.072Z,2.50
2018-02-09T20:01:16.366Z,2.40
2018-02-09T20:03:43.992Z,2.50
2018-02-09T20:06:11.046Z,2.60
2018-02-09T20:08:38.133Z,2.40
2018-02-09T20:11:06.260Z,2.70
2018-02-09T20:13:33.455Z,2.60
2018-02-09T20:16:00.084Z,2.70
2018-02-09T20:18:26.475Z,2.40
2018-02-09T20:20:52.832Z,2.80
2018-02-09T20:23:20.005Z,2.50
2018-02-09T20:25:47.244Z,2.80
2018-02-09T20:28:13.644Z,2.70
2018-02-09T20:30:39.951Z,2.60
2018-02-09T20:33:06.275Z,2.70
2018-02-09T20:35:32.584Z,2.50
2018-02-09T20:38:00.087Z,2.70
2018-02-09T20:40:26.736Z,2.50
2018-02-09T20:42:53.039Z,2.60
2018-02-09T20:45:19.458Z,2.70
2018-02-09T20:47:45.802Z,3.00
2018-02-09T20:50:12.159Z,2.90
2018-02-09T20:52:38.540Z,2.60
2018-02-09T20:55:04.981Z,2.70
2018-02-09T20:57:31.287Z,2.70
2018-02-09T20:59:58.393Z,3.00
2018-02-09T21:02:25.633Z,2.80
2018-02-09T21:04:52.906Z,2.90
2018-02-09T21:07:19.270Z,2.80
2018-02-09T21:09:45.649Z,2.60
2018-02-09T21:12:12.027Z,2.50
2018-02-09T21:14:38.423Z,2.70
2018-02-09T21:17:04.710Z,2.50
2018-02-09T21:19:31.748Z,2.90
2018-02-09T21:21:58.062Z,2.50
2018-02-09T21:24:24.558Z,2.80
2018-02-09T21:26:50.882Z,3.00
2018-02-09T21:29:17.183Z,2.60
2018-02-09T21:31:44.392Z,2.80
2018-02-09T21:34:10.775Z,2.70
2018-02-09T21:36:37.818Z,2.50
2018-02-09T21:39:04.320Z,2.60
2018-02-09T21:41:30.731Z,2.70
2018-02-09T21:43:57.088Z,2.60
2018-02-09T21:46:23.473Z,2.80
2018-02-09T21:48:50.032Z,2.50
2018-02-09T21:51:16.397Z,2.70
2018-02-09T21:53:43.508Z,2.90
2018-02-09T21:56:09.840Z,2.50
2018-02-09T21:58:36.191Z,3.00
2018-02-09T22:01:02.530Z,3.10
2018-02-09T22:03:28.872Z,2.60
2018-02-09T22:05:55.260Z,2.70
2018-02-09T22:08:21.651Z,2.80
2018-02-09T22:10:49.808Z,2.70
2018-02-09T22:13:16.918Z,2.80
2018-02-09T22:15:44.305Z,2.90
2018-02-09T22:18:10.662Z,2.70
2018-02-09T22:20:36.942Z,2.80
2018-02-09T22:23:03.367Z,2.90
2018-02-09T22:25:29.733Z,2.70
2018-02-09T22:27:56.052Z,2.90
2018-02-09T22:30:22.363Z,2.80
2018-02-09T22:32:48.648Z,3.10
2018-02-09T22:35:15.691Z,2.70
2018-02-09T22:37:42.842Z,3.00
2018-02-09T22:40:09.219Z,3.00
2018-02-09T22:42:35.523Z,2.80
2018-02-09T22:45:01.856Z,2.90
2018-02-09T22:47:28.163Z,3.20
2018-02-09T22:49:54.540Z,2.90
2018-02-09T22:52:20.903Z,2.70
2018-02-09T22:54:47.264Z,3.30
2018-02-09T22:57:13.564Z,2.90
2018-02-09T22:59:40.302Z,3.30
2018-02-09T23:02:06.659Z,3.30
2018-02-09T23:04:33.707Z,3.20
2018-02-09T23:07:00.177Z,3.20
2018-02-09T23:09:26.539Z,2.90
2018-02-09T23:11:52.920Z,3.20
2018-02-09T23:14:20.020Z,3.30
2018-02-09T23:16:46.351Z,3.30
2018-02-09T23:19:13.416Z,3.30
2018-02-09T23:21:41.278Z,3.00
2018-02-09T23:24:07.578Z,3.20
2018-02-09T23:26:34.001Z,3.20
2018-02-09T23:29:00.479Z,3.30
2018-02-09T23:31:26.863Z,3.10
2018-02-09T23:33:54.209Z,3.00
2018-02-09T23:36:20.664Z,3.10
2018-02-09T23:38:46.966Z,3.10
2018-02-09T23:41:14.002Z,3.00
2018-02-09T23:43:40.271Z,3.00
2018-02-09T23:46:06.600Z,3.00
2018-02-09T23:48:34.105Z,3.00
2018-02-09T23:51:00.708Z,2.90
2018-02-09T23:53:27.746Z,3.20
2018-02-09T23:55:54.115Z,3.20
2018-02-09T23:58:21.489Z,2.90
